Time;durP1;ratioP1;P1;durP2;ratioP2;P2;SDS_P1;SDS_P2;PMS_P1;PMS_P2;Temp;Humidity;BMP_temperature;BMP_pressure;BME280_temperature;BME280_humidity;BME280_pressure;Samples;Min_cycle;Max_cycle;Signal;HPM_P1;HPM_P2
2024/01/16 00:01:06;;;;;;;7.22;3.08;;;;;;;-0.90;100.00;99138.97;12202514;19;20392;-82
2024/01/16 00:05:09;;;;;;;11.13;3.60;;;;;;;-0.99;100.00;99135.56;12198707;19;20007;-81
2024/01/16 00:09:11;;;;;;;5.90;3.10;;;;;;;-1.04;100.00;99142.56;12183892;19;20064;-81
2024/01/16 00:13:13;;;;;;;8.43;3.07;;;;;;;-1.10;100.00;99141.50;12213890;19;20035;-80
2024/01/16 00:17:15;;;;;;;8.10;3.75;;;;;;;-1.16;100.00;99136.81;12211918;19;20011;-82
2024/01/16 00:21:16;;;;;;;5.60;3.30;;;;;;;-1.19;100.00;99148.00;12192667;19;20014;-83
2024/01/16 00:25:21;;;;;;;8.98;3.65;;;;;;;-1.23;100.00;99152.13;12211279;19;20360;-83
2024/01/16 00:29:23;;;;;;;9.20;3.88;;;;;;;-1.24;100.00;99151.31;12214328;19;20031;-83
2024/01/16 00:33:27;;;;;;;10.70;4.05;;;;;;;-1.16;100.00;99153.03;12189632;19;20359;-82
2024/01/16 00:37:29;;;;;;;7.68;4.10;;;;;;;-1.00;100.00;99160.94;12210500;19;20712;-83
2024/01/16 00:41:30;;;;;;;8.65;4.00;;;;;;;-0.91;100.00;99167.06;12187620;19;20010;-81
2024/01/16 00:45:32;;;;;;;11.23;3.70;;;;;;;-0.83;100.00;99185.03;12205898;19;20493;-84
2024/01/16 00:49:37;;;;;;;8.00;3.40;;;;;;;-0.87;100.00;99175.63;12207973;19;20032;-83
2024/01/16 00:53:42;;;;;;;9.68;3.75;;;;;;;-0.89;100.00;99174.97;12194304;19;20022;-83
2024/01/16 00:57:44;;;;;;;8.82;3.47;;;;;;;-0.87;100.00;99183.75;12219299;19;20014;-84
2024/01/16 01:01:46;;;;;;;8.88;3.55;;;;;;;-0.77;100.00;99182.41;12213836;19;20374;-86
2024/01/16 01:05:47;;;;;;;6.20;3.17;;;;;;;-0.70;100.00;99190.59;12188298;19;20004;-84
2024/01/16 01:09:49;;;;;;;6.40;4.10;;;;;;;-0.71;100.00;99186.22;12211733;19;20018;-82
2024/01/16 01:13:51;;;;;;;12.40;4.33;;;;;;;-0.67;100.00;99187.50;12211522;19;20015;-84
2024/01/16 01:17:54;;;;;;;10.30;3.93;;;;;;;-0.63;100.00;99198.78;12188384;19;20024;-84
2024/01/16 01:21:56;;;;;;;5.95;3.55;;;;;;;-0.71;100.00;99197.03;12209822;19;20109;-85
2024/01/16 01:25:58;;;;;;;8.37;4.20;;;;;;;-0.87;100.00;99199.97;12205807;19;20034;-83
2024/01/16 01:29:59;;;;;;;8.53;4.47;;;;;;;-1.00;100.00;99198.78;12187442;19;20014;-83
2024/01/16 01:34:01;;;;;;;8.33;3.80;;;;;;;-0.98;100.00;99199.47;12203171;19;20006;-83
2024/01/16 01:38:04;;;;;;;9.40;3.95;;;;;;;-1.05;100.00;99195.81;12208474;19;20002;-83
2024/01/16 01:42:05;;;;;;;7.32;3.90;;;;;;;-1.13;100.00;99208.59;12185927;19;20006;-83
2024/01/16 01:46:14;;;;;;;8.67;4.03;;;;;;;-1.25;100.00;99209.09;12202768;19;20649;-84
2024/01/16 01:50:17;;;;;;;7.60;4.18;;;;;;;-1.29;100.00;99212.38;12208957;19;20031;-81
2024/01/16 01:54:20;;;;;;;10.73;4.35;;;;;;;-1.31;100.00;99214.41;12179101;19;20003;-83
2024/01/16 01:58:23;;;;;;;7.25;3.65;;;;;;;-1.29;100.00;99218.59;12206809;19;20006;-83
2024/01/16 02:02:32;;;;;;;9.00;4.68;;;;;;;-1.29;100.00;99224.00;12182754;19;19999;-83
2024/01/16 02:06:34;;;;;;;8.40;4.15;;;;;;;-1.21;100.00;99225.78;12199620;19;20027;-81
2024/01/16 02:10:39;;;;;;;13.18;4.28;;;;;;;-1.18;100.00;99236.22;12203371;19;20010;-84
2024/01/16 02:14:41;;;;;;;6.80;3.35;;;;;;;-1.24;100.00;99236.97;12180338;19;20032;-83
2024/01/16 02:18:43;;;;;;;11.60;3.38;;;;;;;-1.29;100.00;99239.41;12205107;19;20010;-83
2024/01/16 02:22:49;;;;;;;10.47;4.93;;;;;;;-1.31;100.00;99244.13;12203476;19;20013;-82
2024/01/16 02:26:51;;;;;;;8.07;3.88;;;;;;;-1.34;100.00;99247.22;12182431;19;20455;-82
2024/01/16 02:30:53;;;;;;;10.68;5.13;;;;;;;-1.22;100.00;99245.72;12205257;19;20440;-83
2024/01/16 02:34:55;;;;;;;7.90;4.07;;;;;;;-1.09;100.00;99245.91;12190821;19;20011;-84
2024/01/16 02:38:58;;;;;;;;;;;;;;;-1.02;100.00;99244.09;12180731;19;20236;-84
2024/01/16 02:42:59;;;;;;;8.73;4.38;;;;;;;-0.99;100.00;99240.19;12202270;19;20309;-84
2024/01/16 02:47:03;;;;;;;9.95;4.95;;;;;;;-0.88;100.00;99247.00;12199930;19;20002;-86
2024/01/16 02:51:05;;;;;;;11.20;4.07;;;;;;;-0.80;100.00;99245.00;12176422;19;20006;-82
2024/01/16 02:55:08;;;;;;;8.65;4.05;;;;;;;-0.83;100.00;99247.25;12200388;19;20489;-84
2024/01/16 02:59:10;;;;;;;11.52;4.38;;;;;;;-0.98;100.00;99239.19;12196829;19;20010;-83
2024/01/16 03:03:12;;;;;;;11.70;4.63;;;;;;;-1.11;100.00;99242.53;12176693;19;20003;-85
2024/01/16 03:07:16;;;;;;;7.47;4.10;;;;;;;-1.22;100.00;99245.72;12189251;19;20263;-85
2024/01/16 03:11:18;;;;;;;10.65;5.03;;;;;;;-1.29;100.00;99255.63;12195369;19;20015;-85
2024/01/16 03:15:20;;;;;;;12.57;4.65;;;;;;;-1.32;100.00;99258.69;12177861;19;20023;-84
2024/01/16 03:19:22;;;;;;;11.50;4.90;;;;;;;-1.20;100.00;99263.44;12199748;19;20006;-83
2024/01/16 03:23:26;;;;;;;10.43;4.95;;;;;;;-1.04;100.00;99262.41;12192633;19;20002;-84
2024/01/16 03:27:29;;;;;;;13.32;4.80;;;;;;;-0.93;100.00;99259.19;12197124;19;20013;-84
2024/01/16 03:31:31;;;;;;;;;;;;;;;-0.83;100.00;99249.94;12199718;19;20031;-83
2024/01/16 03:35:35;;;;;;;9.70;4.40;;;;;;;-0.74;100.00;99246.97;12176428;19;19910;-84
2024/01/16 03:39:37;;;;;;;12.73;5.87;;;;;;;-0.71;100.00;99243.03;12198971;19;20010;-85
2024/01/16 03:43:40;;;;;;;12.23;5.30;;;;;;;-0.72;100.00;99257.56;12197417;19;20014;-86
2024/01/16 03:47:42;;;;;;;8.48;5.10;;;;;;;-0.73;100.00;99248.63;12174886;19;20007;-85
2024/01/16 03:51:46;;;;;;;12.48;5.53;;;;;;;-0.66;100.00;99253.28;12199989;19;20009;-83
2024/01/16 03:55:49;;;;;;;13.60;4.90;;;;;;;-0.66;100.00;99251.41;12197251;19;20023;-84
2024/01/16 03:59:52;;;;;;;13.38;5.25;;;;;;;-0.59;100.00;99255.03;12179712;19;20024;-84
2024/01/16 04:03:54;;;;;;;13.38;5.40;;;;;;;-0.57;100.00;99236.72;12197247;19;20011;-85
2024/01/16 04:07:57;;;;;;;11.80;5.40;;;;;;;-0.56;100.00;99248.41;12199148;19;20007;-84
2024/01/16 04:11:59;;;;;;;10.02;4.15;;;;;;;-0.58;100.00;99250.44;12183506;19;20754;-81
2024/01/16 04:16:01;;;;;;;17.73;6.40;;;;;;;-0.57;100.00;99242.13;12209344;19;20011;-84
2024/01/16 04:20:06;;;;;;;17.02;5.68;;;;;;;-0.54;100.00;99252.56;12256376;19;20031;-80
2024/01/16 04:24:14;;;;;;;17.88;4.78;;;;;;;-0.64;100.00;99254.75;12241709;19;20022;-81
2024/01/16 04:28:16;;;;;;;11.48;5.53;;;;;;;-0.65;100.00;99255.81;12239759;19;20003;-83
2024/01/16 04:32:18;;;;;;;19.20;5.95;;;;;;;-0.70;100.00;99261.78;12193522;19;20495;-82
2024/01/16 04:36:21;;;;;;;10.25;4.68;;;;;;;-0.72;100.00;99257.56;12170900;19;20006;-85
2024/01/16 04:40:23;;;;;;;10.75;5.25;;;;;;;-0.74;100.00;99263.19;12191273;19;20027;-84
2024/01/16 04:44:28;;;;;;;16.45;5.35;;;;;;;-0.81;100.00;99256.84;12172052;19;20066;-82
2024/01/16 04:48:30;;;;;;;10.52;5.32;;;;;;;-0.82;100.00;99251.63;12192564;19;20011;-83
2024/01/16 04:52:32;;;;;;;15.23;5.57;;;;;;;-0.86;100.00;99253.91;12193444;19;20106;-85
2024/01/16 04:56:35;;;;;;;;;;;;;;;-0.89;100.00;99251.56;12175796;19;20014;-84
2024/01/16 05:00:37;;;;;;;11.37;4.60;;;;;;;-0.91;100.00;99248.22;12207363;19;19911;-84
2024/01/16 05:04:49;;;;;;;9.33;4.70;;;;;;;-0.88;100.00;99241.59;12203895;19;20825;-83
2024/01/16 05:08:51;;;;;;;10.20;5.00;;;;;;;-0.92;100.00;99239.25;12179510;19;20144;-83
2024/01/16 05:12:53;;;;;;;13.33;5.43;;;;;;;-0.95;100.00;99239.63;12204472;19;20003;-84
2024/01/16 05:16:56;;;;;;;10.77;4.15;;;;;;;-0.97;100.00;99235.44;12205265;19;20010;-83
2024/01/16 05:20:58;;;;;;;9.50;5.05;;;;;;;-0.99;100.00;99223.97;12183195;19;20017;-84
2024/01/16 05:25:01;;;;;;;11.00;4.57;;;;;;;-1.01;100.00;99220.59;12212334;19;20018;-83
2024/01/16 05:29:03;;;;;;;15.88;4.90;;;;;;;-1.01;100.00;99210.66;12215939;19;20028;-86
2024/01/16 05:33:06;;;;;;;11.98;5.25;;;;;;;-1.05;100.00;99211.22;12188458;19;20470;-82
2024/01/16 05:37:09;;;;;;;12.25;4.72;;;;;;;-1.12;100.00;99196.78;12204808;19;20030;-84
2024/01/16 05:41:11;;;;;;;12.80;5.10;;;;;;;-1.11;100.00;99207.41;12211362;19;20014;-84
2024/01/16 05:45:13;;;;;;;11.38;4.78;;;;;;;-1.13;100.00;99203.19;12186763;19;20049;-85
2024/01/16 05:49:15;;;;;;;9.90;3.80;;;;;;;-1.16;100.00;99196.28;12206847;19;20006;-84
2024/01/16 05:53:17;;;;;;;14.83;5.63;;;;;;;-1.21;100.00;99201.47;12207524;19;20031;-83
2024/01/16 05:57:19;;;;;;;8.15;4.25;;;;;;;-1.26;100.00;99199.31;12182905;19;20002;-83
2024/01/16 06:01:20;;;;;;;12.60;4.83;;;;;;;-1.32;100.00;99197.34;12206547;19;20504;-86
2024/01/16 06:05:24;;;;;;;9.50;5.13;;;;;;;-1.38;100.00;99206.22;12207329;19;20035;-83
2024/01/16 06:09:26;;;;;;;10.52;5.22;;;;;;;-1.43;100.00;99200.53;12185136;19;20135;-86
2024/01/16 06:13:30;;;;;;;11.90;5.38;;;;;;;-1.49;100.00;99201.28;12201522;19;20010;-83
2024/01/16 06:17:32;;;;;;;13.38;5.20;;;;;;;-1.52;100.00;99196.25;12157143;19;20513;-84
2024/01/16 06:21:33;;;;;;;17.08;5.32;;;;;;;-1.54;100.00;99199.16;12208172;19;20006;-85
2024/01/16 06:25:36;;;;;;;13.63;5.17;;;;;;;-1.59;100.00;99201.56;12203621;19;20916;-85
2024/01/16 06:29:37;;;;;;;13.52;5.10;;;;;;;-1.62;100.00;99196.53;12186663;19;20026;-85
2024/01/16 06:33:39;;;;;;;10.73;4.93;;;;;;;-1.66;100.00;99192.56;12209513;19;20452;-81
2024/01/16 06:37:43;;;;;;;16.63;5.65;;;;;;;-1.68;100.00;99192.72;12206998;19;20263;-85
2024/01/16 06:41:45;;;;;;;16.98;5.03;;;;;;;-1.68;100.00;99191.88;12184784;19;20066;-83
2024/01/16 06:45:47;;;;;;;8.02;2.97;;;;;;;-1.73;100.00;99189.72;12206162;19;20002;-85
2024/01/16 06:49:49;;;;;;;12.00;5.35;;;;;;;-1.70;100.00;99185.81;12199749;19;20010;-85
2024/01/16 06:53:51;;;;;;;10.27;5.10;;;;;;;-1.66;100.00;99179.03;12180291;19;20065;-83
2024/01/16 06:57:53;;;;;;;20.13;6.07;;;;;;;-1.69;100.00;99190.22;12202302;19;20471;-85
2024/01/16 07:01:55;;;;;;;10.20;5.10;;;;;;;-1.69;100.00;99184.81;12201588;19;20006;-85
2024/01/16 07:05:56;;;;;;;16.75;5.68;;;;;;;-1.71;100.00;99174.19;12177708;19;20073;-84
2024/01/16 07:09:58;;;;;;;10.90;5.07;;;;;;;-1.69;100.00;99190.22;12190510;19;20054;-84
2024/01/16 07:14:00;;;;;;;12.13;4.25;;;;;;;-1.71;100.00;99189.56;12202112;19;20342;-85
2024/01/16 07:18:02;;;;;;;14.90;5.50;;;;;;;-1.72;100.00;99190.59;12178404;19;20510;-82
2024/01/16 07:22:05;;;;;;;10.15;4.00;;;;;;;-1.67;100.00;99194.38;12199881;19;20021;-83
2024/01/16 07:26:07;;;;;;;10.13;3.67;;;;;;;-1.66;100.00;99190.69;12198617;19;20300;-82
2024/01/16 07:30:10;;;;;;;11.77;4.35;;;;;;;-1.56;100.00;99197.66;12180129;19;20011;-85
2024/01/16 07:34:12;;;;;;;9.20;4.53;;;;;;;-1.51;100.00;99196.09;12209298;19;20380;-85
2024/01/16 07:38:14;;;;;;;8.90;4.22;;;;;;;-1.36;100.00;99203.34;12208489;19;20466;-85
2024/01/16 07:42:16;;;;;;;19.63;4.03;;;;;;;-1.24;100.00;99204.53;12180573;19;20404;-81
2024/01/16 07:46:18;;;;;;;11.10;3.50;;;;;;;-1.13;100.00;99212.16;12206169;19;20273;-83
2024/01/16 07:50:20;;;;;;;14.13;5.00;;;;;;;-0.97;100.00;99209.22;12203296;19;20022;-85
2024/01/16 07:54:21;;;;;;;12.17;4.07;;;;;;;-0.92;100.00;99209.50;12179824;19;20014;-82
2024/01/16 07:58:24;;;;;;;;;;;;;;;-0.90;100.00;99206.59;12203353;19;20106;-83
2024/01/16 08:02:33;;;;;;;9.98;4.85;;;;;;;-0.76;100.00;99213.84;12207056;19;19919;-83
2024/01/16 08:06:36;;;;;;;15.38;4.57;;;;;;;-0.68;100.00;99218.31;12187966;19;20010;-83
2024/01/16 08:10:42;;;;;;;10.93;4.95;;;;;;;-0.63;100.00;99223.13;12207747;19;20149;-82
2024/01/16 08:14:44;;;;;;;15.65;5.53;;;;;;;-0.60;100.00;99222.75;12184759;19;20023;-86
2024/01/16 08:18:46;;;;;;;13.17;4.17;;;;;;;-0.52;100.00;99226.16;12203860;19;20017;-85
2024/01/16 08:22:50;;;;;;;12.20;4.80;;;;;;;-0.54;100.00;99222.78;12206880;19;20255;-83
2024/01/16 08:26:51;;;;;;;9.13;4.80;;;;;;;-0.43;100.00;99226.88;12174362;19;20272;-83
2024/01/16 08:30:53;;;;;;;14.47;4.53;;;;;;;-0.35;100.00;99232.16;12204176;19;20003;-85
2024/01/16 08:34:55;;;;;;;13.43;4.87;;;;;;;-0.32;100.00;99236.34;12212034;19;20350;-84
2024/01/16 08:38:57;;;;;;;10.33;5.07;;;;;;;-0.31;100.00;99236.16;12193122;19;20010;-82
2024/01/16 08:43:03;;;;;;;13.68;5.22;;;;;;;-0.22;100.00;99247.69;12215341;19;20010;-84
2024/01/16 08:47:06;;;;;;;15.50;5.00;;;;;;;-0.14;100.00;99247.56;12213346;19;20010;-83
2024/01/16 08:51:14;;;;;;;13.90;4.80;;;;;;;-0.09;99.23;99244.25;12193532;19;20006;-83
2024/01/16 08:55:16;;;;;;;9.65;4.97;;;;;;;0.01;98.97;99254.78;12209269;19;20007;-84
2024/01/16 08:59:22;;;;;;;13.75;5.30;;;;;;;0.05;97.97;99251.47;12214161;19;20033;-81
2024/01/16 09:03:26;;;;;;;9.82;4.47;;;;;;;0.14;97.23;99263.00;12189254;19;20007;-82
2024/01/16 09:07:29;;;;;;;16.25;5.20;;;;;;;0.27;96.89;99265.84;12206315;19;20021;-84
2024/01/16 09:11:32;;;;;;;11.07;3.58;;;;;;;0.35;95.79;99276.50;12188171;19;20011;-83
2024/01/16 09:15:34;;;;;;;11.88;4.72;;;;;;;0.50;94.89;99264.72;12210055;19;20015;-84
2024/01/16 09:19:42;;;;;;;10.35;4.63;;;;;;;0.59;93.29;99277.09;12211895;19;20035;-83
2024/01/16 09:23:44;;;;;;;23.97;6.33;;;;;;;0.68;92.93;99271.34;12187083;19;21904;-84
2024/01/16 09:27:46;;;;;;;10.33;4.40;;;;;;;0.79;91.73;99261.78;12208920;19;20007;-85
2024/01/16 09:31:47;;;;;;;11.63;4.83;;;;;;;0.80;90.72;99262.63;12209159;19;20010;-83
2024/01/16 09:35:50;;;;;;;11.20;4.82;;;;;;;0.91;90.68;99257.47;12188443;19;20394;-82
2024/01/16 09:39:53;;;;;;;10.20;4.03;;;;;;;1.06;89.52;99265.47;12208727;19;20051;-83
2024/01/16 09:43:56;;;;;;;10.93;4.47;;;;;;;1.12;89.03;99263.81;12207601;19;20039;-84
2024/01/16 09:47:59;;;;;;;9.50;4.43;;;;;;;1.22;89.33;99267.03;12185680;19;20010;-83
2024/01/16 09:52:01;;;;;;;11.68;4.93;;;;;;;1.16;87.91;99273.25;12211226;19;20129;-85
2024/01/16 09:56:10;;;;;;;11.68;5.05;;;;;;;1.04;87.31;99280.28;12204994;19;20006;-82
2024/01/16 10:00:15;;;;;;;11.10;4.30;;;;;;;1.05;88.41;99276.53;12188535;19;20011;-83
2024/01/16 10:04:20;;;;;;;11.43;4.95;;;;;;;1.12;88.76;99275.50;12227725;19;20010;-84
2024/01/16 10:08:24;;;;;;;11.20;4.93;;;;;;;1.26;88.74;99272.88;12224927;19;21282;-85
2024/01/16 10:12:26;;;;;;;10.50;4.20;;;;;;;1.48;88.80;99271.69;12194232;19;20083;-86
2024/01/16 10:17:05;;;;;;;13.23;4.40;;;;;;;1.64;86.88;99273.22;12213884;19;20026;-84
2024/01/16 10:21:21;;;;;;;14.65;4.78;;;;;;;1.86;87.22;99278.47;12197917;19;20078;-85
2024/01/16 10:25:27;;;;;;;12.13;4.63;;;;;;;1.97;84.96;99272.44;12246905;19;20015;-82
2024/01/16 10:29:31;;;;;;;7.43;4.65;;;;;;;2.07;84.65;99263.84;12212892;19;20082;-86
2024/01/16 10:33:50;;;;;;;12.13;5.25;;;;;;;2.14;82.54;99260.13;12216145;19;20051;-85
2024/01/16 10:37:53;;;;;;;11.90;4.63;;;;;;;2.13;80.77;99249.44;12219010;19;20011;-85
2024/01/16 10:41:58;;;;;;;12.45;4.68;;;;;;;2.14;81.05;99243.81;12199800;19;20006;-85
2024/01/16 10:46:08;;;;;;;13.07;5.22;;;;;;;2.20;81.16;99250.25;12243402;19;20010;-82
2024/01/16 10:50:10;;;;;;;14.73;5.63;;;;;;;2.15;80.59;99250.91;12271706;19;20034;-82
2024/01/16 10:54:14;;;;;;;11.65;5.60;;;;;;;2.07;80.71;99245.66;12238020;19;20003;-82
2024/01/16 10:58:23;;;;;;;12.05;4.78;;;;;;;2.12;81.25;99236.91;12216293;19;20013;-83
2024/01/16 11:02:38;;;;;;;11.30;5.13;;;;;;;2.07;81.24;99231.25;12181091;19;20019;-83
2024/01/16 11:06:42;;;;;;;13.00;5.20;;;;;;;2.24;81.94;99227.06;12202175;19;20011;-83
2024/01/16 11:10:44;;;;;;;13.63;5.20;;;;;;;2.31;79.99;99227.06;12207896;19;20019;-84
2024/01/16 11:14:51;;;;;;;13.57;4.70;;;;;;;2.32;80.29;99231.44;12185549;19;21973;-84
2024/01/16 11:18:53;;;;;;;15.48;4.72;;;;;;;2.50;79.55;99220.75;12205200;19;20011;-85
2024/01/16 11:23:11;;;;;;;16.65;5.70;;;;;;;2.71;78.91;99209.63;12209880;19;20014;-82
2024/01/16 11:27:23;;;;;;;16.23;5.80;;;;;;;2.83;78.59;99204.34;12189240;19;20470;-83
2024/01/16 11:31:28;;;;;;;12.97;4.87;;;;;;;2.79;77.92;99188.66;12206147;19;20382;-83
2024/01/16 11:35:38;;;;;;;11.68;4.55;;;;;;;2.71;77.98;99181.59;12187359;19;20280;-85
2024/01/16 11:39:41;;;;;;;10.75;4.57;;;;;;;2.81;77.33;99183.84;12206965;19;20011;-84
2024/01/16 11:43:43;;;;;;;9.52;5.15;;;;;;;2.76;75.76;99170.88;12205340;19;20007;-84
2024/01/16 11:47:45;;;;;;;15.00;4.55;;;;;;;2.77;75.89;99164.41;12186707;19;20006;-83
2024/01/16 11:51:48;;;;;;;14.00;5.20;;;;;;;2.65;74.62;99156.06;12203806;19;20007;-83
2024/01/16 11:56:34;;;;;;;10.65;4.65;;;;;;;2.57;75.05;99156.31;12200546;19;20034;-83
2024/01/16 12:00:47;;;;;;;12.55;4.50;;;;;;;3.05;73.07;99149.63;12181115;19;20034;-82
2024/01/16 12:04:54;;;;;;;9.02;4.60;;;;;;;3.49;73.01;99142.44;12205913;19;20007;-83
2024/01/16 12:09:15;;;;;;;11.05;4.43;;;;;;;3.68;72.29;99136.00;12185878;19;20006;-82
2024/01/16 12:13:17;;;;;;;11.70;4.72;;;;;;;3.66;72.66;99121.78;12208618;19;20009;-83
2024/01/16 12:17:20;;;;;;;8.00;3.65;;;;;;;3.53;72.52;99122.69;12207262;19;19999;-83
2024/01/16 12:21:22;;;;;;;11.07;4.40;;;;;;;3.29;70.44;99126.22;12186170;19;20032;-84
2024/01/16 12:25:27;;;;;;;8.70;3.47;;;;;;;3.96;70.22;99123.84;12201371;19;20020;-83
2024/01/16 12:29:51;;;;;;;11.80;4.32;;;;;;;4.79;65.67;99126.09;12180461;19;20029;-81
2024/01/16 12:34:07;;;;;;;11.40;4.55;;;;;;;5.47;63.29;99125.78;12201584;19;20078;-82
2024/01/16 12:38:16;;;;;;;8.23;3.33;;;;;;;5.88;61.67;99117.75;12212768;19;20082;-82
2024/01/16 12:42:18;;;;;;;10.80;4.50;;;;;;;6.39;58.99;99100.66;12191328;19;20013;-86
2024/01/16 12:46:22;;;;;;;7.75;3.10;;;;;;;6.69;57.14;99098.81;12217419;19;20014;-86
2024/01/16 12:50:27;;;;;;;9.25;4.13;;;;;;;6.25;57.30;99093.78;12207993;19;20039;-84
2024/01/16 12:54:28;;;;;;;7.45;3.20;;;;;;;5.71;56.91;99073.88;12192345;19;20010;-84
2024/01/16 12:58:37;;;;;;;8.43;3.47;;;;;;;5.03;57.50;99077.88;12206247;19;20021;-85
2024/01/16 13:02:39;;;;;;;10.55;3.53;;;;;;;5.10;57.81;99072.31;12185754;19;20034;-84
2024/01/16 13:06:43;;;;;;;9.23;4.00;;;;;;;5.03;58.33;99078.72;12203322;19;20006;-84
2024/01/16 13:11:05;;;;;;;10.25;4.65;;;;;;;4.72;58.16;99076.19;12204894;19;21136;-86
2024/01/16 13:15:08;;;;;;;7.38;3.05;;;;;;;4.28;59.19;99070.00;12183816;19;20117;-85
2024/01/16 13:19:11;;;;;;;11.77;3.85;;;;;;;4.05;60.54;99071.53;12218510;19;20079;-85
2024/01/16 13:23:16;;;;;;;8.20;3.20;;;;;;;3.77;60.82;99063.00;12221312;19;20034;-85
2024/01/16 13:27:18;;;;;;;11.25;3.65;;;;;;;3.78;61.77;99070.13;12201159;19;20014;-85
2024/01/16 13:31:20;;;;;;;8.50;2.77;;;;;;;3.70;61.27;99068.50;12216806;19;20010;-85
2024/01/16 13:35:22;;;;;;;10.48;3.42;;;;;;;3.44;61.23;99064.09;12219186;19;20023;-85
2024/01/16 13:39:24;;;;;;;6.40;3.73;;;;;;;3.34;62.12;99070.06;12198422;19;20014;-82
2024/01/16 13:43:26;;;;;;;6.75;3.90;;;;;;;3.28;62.67;99051.06;12232887;19;20010;-83
2024/01/16 13:47:29;;;;;;;8.75;3.60;;;;;;;3.08;62.70;99045.75;12236442;19;20017;-84
2024/01/16 13:51:31;;;;;;;9.63;3.85;;;;;;;3.02;63.44;99043.91;12217011;19;20027;-85
2024/01/16 13:55:33;;;;;;;12.25;4.57;;;;;;;3.02;63.97;99049.34;12215307;19;20010;-85
2024/01/16 13:59:37;;;;;;;8.45;3.47;;;;;;;2.96;63.89;99048.34;12196458;19;20011;-83
2024/01/16 14:03:42;;;;;;;8.98;3.05;;;;;;;2.82;64.10;99033.97;12214026;19;20042;-82
2024/01/16 14:07:46;;;;;;;12.55;4.47;;;;;;;2.63;64.79;99035.75;12211138;19;20022;-84
2024/01/16 14:11:50;;;;;;;11.10;3.72;;;;;;;2.46;65.22;99034.59;12192122;19;20010;-84
2024/01/16 14:15:52;;;;;;;12.23;4.50;;;;;;;2.35;66.28;99032.53;12220919;19;20366;-84
2024/01/16 14:19:54;;;;;;;9.17;4.47;;;;;;;2.35;67.04;99032.53;12213215;19;20755;-83
2024/01/16 14:24:00;;;;;;;12.90;5.40;;;;;;;2.37;67.72;99046.75;12193410;19;20014;-86
2024/01/16 14:28:03;;;;;;;10.67;4.30;;;;;;;2.45;67.47;99051.97;12219473;19;20006;-82
2024/01/16 14:32:06;;;;;;;10.55;4.75;;;;;;;2.35;67.40;99047.00;12216384;19;20010;-81
2024/01/16 14:36:08;;;;;;;12.27;4.30;;;;;;;2.27;68.01;99045.34;12196424;19;20102;-81
2024/01/16 14:40:15;;;;;;;10.80;4.63;;;;;;;2.09;68.30;99052.50;12220605;19;20115;-83
2024/01/16 14:44:17;;;;;;;12.60;5.35;;;;;;;2.01;68.83;99045.41;12222200;19;20275;-81
2024/01/16 14:48:19;;;;;;;14.40;4.55;;;;;;;2.07;69.01;99039.13;12214102;19;20014;-83
2024/01/16 14:52:22;;;;;;;9.65;4.45;;;;;;;2.17;69.43;99038.66;12226690;19;20016;-83
2024/01/16 14:56:25;;;;;;;7.97;3.88;;;;;;;2.23;69.38;99025.06;12221492;19;20010;-83
2024/01/16 15:00:27;;;;;;;11.90;4.20;;;;;;;2.22;69.24;99036.16;12206780;19;20018;-83
2024/01/16 15:04:31;;;;;;;13.75;4.70;;;;;;;2.22;69.38;99030.72;12223982;19;20374;-82
2024/01/16 15:08:33;;;;;;;11.13;4.28;;;;;;;2.17;68.74;99036.81;12197678;19;20009;-81
2024/01/16 15:12:36;;;;;;;8.00;3.95;;;;;;;2.09;68.66;99039.75;12220926;19;20406;-82
2024/01/16 15:16:38;;;;;;;8.77;3.60;;;;;;;1.96;69.01;99043.34;12230603;19;20011;-82
2024/01/16 15:20:44;;;;;;;10.15;3.78;;;;;;;1.72;69.13;99036.69;12196872;19;20010;-82
2024/01/16 15:24:47;;;;;;;9.23;3.43;;;;;;;1.55;69.73;99038.19;12217251;19;20031;-82
2024/01/16 15:28:49;;;;;;;14.07;4.03;;;;;;;1.46;70.26;99039.44;12218320;19;20003;-83
2024/01/16 15:32:51;;;;;;;7.40;3.28;;;;;;;1.38;70.64;99032.34;12196629;19;20002;-82
2024/01/16 15:36:53;;;;;;;9.47;3.30;;;;;;;1.25;71.29;99026.91;12213660;19;20011;-82
2024/01/16 15:40:56;;;;;;;;;;;;;;;1.07;71.88;99022.97;12215901;19;20010;-82
2024/01/16 15:44:58;;;;;;;7.07;2.97;;;;;;;0.94;72.68;99027.53;12189414;19;19915;-83
2024/01/16 15:49:00;;;;;;;9.40;3.47;;;;;;;0.78;73.47;99026.06;12208130;19;20235;-82
2024/01/16 15:53:04;;;;;;;8.33;3.47;;;;;;;0.65;74.11;99033.13;12209963;19;20003;-83
2024/01/16 15:57:06;;;;;;;7.95;3.28;;;;;;;0.49;74.78;99032.66;12185192;19;20243;-82
2024/01/16 16:01:10;;;;;;;11.93;4.05;;;;;;;0.37;75.81;99032.41;12208967;19;20018;-81
2024/01/16 16:05:12;;;;;;;15.48;4.93;;;;;;;0.28;76.32;99025.50;12214867;19;20469;-82
2024/01/16 16:09:14;;;;;;;11.85;4.72;;;;;;;0.18;76.95;99023.16;12187254;19;20071;-83
2024/01/16 16:13:17;;;;;;;9.10;4.53;;;;;;;0.07;77.46;99021.03;12202097;19;21477;-83
2024/01/16 16:17:19;;;;;;;10.88;4.32;;;;;;;-0.04;78.17;99023.25;12201837;19;20276;-81
2024/01/16 16:21:21;;;;;;;19.67;7.00;;;;;;;-0.15;78.46;99014.88;12179170;19;20415;-82
2024/01/16 16:25:26;;;;;;;20.50;6.30;;;;;;;-0.26;79.41;99035.22;12200232;19;20260;-84
2024/01/16 16:29:28;;;;;;;16.23;5.30;;;;;;;-0.32;79.86;99033.31;12189536;19;20006;-83
2024/01/16 16:33:30;;;;;;;10.65;4.63;;;;;;;-0.38;81.11;99034.13;12198012;19;20009;-82
2024/01/16 16:37:33;;;;;;;9.17;4.23;;;;;;;-0.47;81.67;99041.56;12198843;19;20085;-82
2024/01/16 16:41:42;;;;;;;13.45;4.57;;;;;;;-0.54;82.24;99048.75;12173858;19;20589;-83
2024/01/16 16:45:44;;;;;;;10.00;4.28;;;;;;;-0.59;82.86;99051.25;12203672;19;20003;-82
2024/01/16 16:49:50;;;;;;;9.25;4.10;;;;;;;-0.66;82.91;99053.03;12204258;19;20018;-80
2024/01/16 16:53:54;;;;;;;10.10;4.15;;;;;;;-0.74;83.70;99043.22;12186893;19;20462;-83
2024/01/16 16:57:57;;;;;;;8.90;3.47;;;;;;;-0.84;84.04;99035.41;12214290;19;20341;-84
2024/01/16 17:02:02;;;;;;;9.10;3.47;;;;;;;-0.88;84.32;99042.25;12217664;19;20022;-80
2024/01/16 17:06:10;;;;;;;6.77;3.47;;;;;;;-0.91;84.99;99050.75;12209364;19;20018;-80
2024/01/16 17:10:14;;;;;;;8.95;3.83;;;;;;;-0.97;84.85;99048.84;12260900;19;20011;-84
2024/01/16 17:14:16;;;;;;;9.18;3.70;;;;;;;-1.02;85.33;99044.00;12217753;19;20015;-84
2024/01/16 17:18:18;;;;;;;10.98;3.80;;;;;;;-1.06;85.43;99056.25;12195959;19;20027;-84
2024/01/16 17:22:22;;;;;;;8.27;3.72;;;;;;;-1.07;85.64;99046.47;12215903;19;20014;-81
2024/01/16 17:26:23;;;;;;;7.43;3.47;;;;;;;-1.07;85.32;99034.78;12213481;19;20581;-82
2024/01/16 17:30:28;;;;;;;9.13;2.78;;;;;;;-1.06;85.62;99028.38;12193737;19;20020;-82
2024/01/16 17:34:30;;;;;;;6.87;3.00;;;;;;;-1.09;85.62;99018.78;12212206;19;19998;-83
2024/01/16 17:38:32;;;;;;;8.32;3.13;;;;;;;-1.11;85.52;99010.03;12186904;19;20099;-83
2024/01/16 17:42:34;;;;;;;14.10;4.07;;;;;;;-1.13;85.71;99012.09;12213946;19;20355;-83
2024/01/16 17:46:36;;;;;;;9.65;3.28;;;;;;;-1.19;86.18;99002.91;12213779;19;20014;-82
2024/01/16 17:50:54;;;;;;;7.18;3.05;;;;;;;-1.22;86.59;98999.72;12198193;19;20010;-82
2024/01/16 17:54:57;;;;;;;8.10;2.80;;;;;;;-1.26;86.52;98990.34;12262583;19;20031;-80
2024/01/16 17:58:59;;;;;;;7.05;2.90;;;;;;;-1.31;86.85;98988.22;12265510;19;20003;-81
2024/01/16 18:03:03;;;;;;;9.50;3.53;;;;;;;-1.32;87.10;98986.53;12223066;19;20010;-82
2024/01/16 18:07:05;;;;;;;7.10;3.40;;;;;;;-1.34;87.29;98975.06;12256031;19;20006;-80
2024/01/16 18:11:07;;;;;;;5.85;2.65;;;;;;;-1.33;87.09;98989.44;12257251;19;20390;-80
2024/01/16 18:15:13;;;;;;;10.83;3.20;;;;;;;-1.32;87.53;98977.59;12240574;19;20018;-80
2024/01/16 18:19:15;;;;;;;8.57;3.92;;;;;;;-1.31;87.69;98981.97;12260130;19;20015;-81
2024/01/16 18:23:19;;;;;;;11.80;4.05;;;;;;;-1.36;87.63;98968.22;12237330;19;20010;-83
2024/01/16 18:27:21;;;;;;;9.32;3.75;;;;;;;-1.37;87.99;98970.06;12183295;19;20007;-82
2024/01/16 18:31:24;;;;;;;10.15;4.07;;;;;;;-1.36;88.63;98957.41;12208910;19;20014;-82
2024/01/16 18:35:26;;;;;;;12.43;4.45;;;;;;;-1.38;89.13;98954.88;12208668;19;20014;-83
2024/01/16 18:39:29;;;;;;;7.53;2.87;;;;;;;-1.41;88.91;98950.69;12180943;19;20003;-83
2024/01/16 18:43:31;;;;;;;10.35;4.35;;;;;;;-1.42;88.98;98949.03;12212954;19;20029;-83
2024/01/16 18:47:36;;;;;;;11.52;4.15;;;;;;;-1.42;89.33;98940.94;12189285;19;20207;-84